NCAR-RAP Real-Time Weather Data

Output produced by METARs form (23 April 2014  09:51 UTC)
found at http://weather.rap.ucar.edu/surface/
 
Conditions at: KSDF observed 23 April 2014  08:56 UTC
Temperature: 8.3°C (47°F)
Dewpoint: 0.0°C (32°F) [RH = 56%]
Pressure (altimeter): 30.03 inches Hg (1017.0 mb)
[Sea-level pressure: 1016.7 mb]
Winds: from the N (360 degrees) at 8 MPH (7 knots; 3.6 m/s)
Visibility: 10 or more miles (16+ km)
Ceiling: at least 12,000 feet AGL
Clouds: sky clear below 12,000 feet AGL
Present Weather: no significant weather observed at this time
KSDF 230856Z 36007KT 10SM CLR 08/00 A3003 RMK AO2 SLP167 T00830000 53010